Time;durP1;ratioP1;P1;durP2;ratioP2;P2;SDS_P1;SDS_P2;PMS_P1;PMS_P2;Temp;Humidity;BMP_temperature;BMP_pressure;BME280_temperature;BME280_humidity;BME280_pressure;Samples;Min_cycle;Max_cycle;Signal;HPM_P1;HPM_P2
2020/12/06 00:01:27;;;;;;;33.53;19.92;;;1.40;97.30;;;;;;5031926;28;20021;-67
2020/12/06 00:03:52;;;;;;;34.78;19.23;;;1.40;97.30;;;;;;5031997;28;20039;-66
2020/12/06 00:06:22;;;;;;;30.02;19.48;;;1.40;97.30;;;;;;5030720;28;20033;-66
2020/12/06 00:08:52;;;;;;;34.65;21.20;;;1.40;97.30;;;;;;5039852;28;20083;-66
2020/12/06 00:11:18;;;;;;;33.50;20.80;;;1.40;97.30;;;;;;5046094;28;20031;-66
2020/12/06 00:13:44;;;;;;;33.65;20.75;;;1.50;97.30;;;;;;5045158;28;20017;-66
2020/12/06 00:16:14;;;;;;;38.13;21.35;;;1.50;97.40;;;;;;5066022;28;20025;-66
2020/12/06 00:18:42;;;;;;;35.20;21.35;;;1.40;97.30;;;;;;5043938;28;20393;-66
2020/12/06 00:21:20;;;;;;;34.47;20.33;;;1.40;97.30;;;;;;5047532;28;20025;-66
2020/12/06 00:23:46;;;;;;;31.25;20.02;;;1.40;97.30;;;;;;5039445;28;20064;-66
2020/12/06 00:26:13;;;;;;;37.58;20.67;;;1.50;97.30;;;;;;5046287;28;20036;-67
2020/12/06 00:28:39;;;;;;;35.88;21.05;;;1.50;97.30;;;;;;5053042;28;20178;-66
2020/12/06 00:31:04;;;;;;;31.17;19.15;;;1.40;97.30;;;;;;5047374;28;20112;-66
2020/12/06 00:33:31;;;;;;;31.45;19.17;;;1.40;97.30;;;;;;5048033;28;20437;-66
2020/12/06 00:35:57;;;;;;;31.60;19.60;;;1.40;97.30;;;;;;5066157;28;20079;-66
2020/12/06 00:38:23;;;;;;;30.65;19.30;;;1.40;97.30;;;;;;5044645;28;20419;-66
2020/12/06 00:40:49;;;;;;;40.30;22.38;;;1.50;97.30;;;;;;5047129;28;20048;-66
2020/12/06 00:43:14;;;;;;;33.80;20.23;;;1.40;97.30;;;;;;5045383;28;20029;-66
2020/12/06 00:45:40;;;;;;;35.67;20.40;;;1.40;97.30;;;;;;5045081;28;20108;-66
2020/12/06 00:48:05;;;;;;;35.20;20.52;;;1.40;97.30;;;;;;5041327;28;20029;-66
2020/12/06 00:50:31;;;;;;;42.20;21.45;;;1.40;97.30;;;;;;5030470;28;20123;-66
2020/12/06 00:52:57;;;;;;;39.03;21.10;;;1.40;97.40;;;;;;5043871;28;20075;-66
2020/12/06 00:55:23;;;;;;;38.53;20.17;;;1.40;97.40;;;;;;5045683;28;20105;-66
2020/12/06 00:57:48;;;;;;;36.55;20.17;;;1.40;97.50;;;;;;5045582;28;20025;-66
2020/12/06 01:00:15;;;;;;;36.90;20.20;;;1.40;97.40;;;;;;5046564;28;20058;-66
2020/12/06 01:02:40;;;;;;;38.22;21.65;;;1.40;97.40;;;;;;5045114;28;20250;-66
2020/12/06 01:05:07;;;;;;;31.52;19.52;;;1.40;97.40;;;;;;5047096;28;20111;-66
2020/12/06 01:07:40;;;;;;;36.60;20.45;;;1.40;97.40;;;;;;5043800;28;20040;-66
2020/12/06 01:10:07;;;;;;;36.22;21.00;;;1.40;97.40;;;;;;5046817;28;20147;-66
2020/12/06 01:12:33;;;;;;;30.88;19.42;;;1.40;97.40;;;;;;5062138;28;20120;-67
2020/12/06 01:14:58;;;;;;;35.28;19.73;;;1.40;97.40;;;;;;5064719;28;20119;-66
2020/12/06 01:17:24;;;;;;;33.60;20.50;;;1.50;97.40;;;;;;5051808;28;20036;-66
2020/12/06 01:19:50;;;;;;;33.67;20.27;;;1.50;97.40;;;;;;5060918;28;20100;-66
2020/12/06 01:22:15;;;;;;;39.05;20.50;;;1.50;97.40;;;;;;5045455;28;20032;-66
2020/12/06 01:24:41;;;;;;;33.92;20.98;;;1.60;97.30;;;;;;5046515;28;20427;-66
2020/12/06 01:27:06;;;;;;;32.75;20.90;;;1.60;97.30;;;;;;5042571;28;20192;-66
2020/12/06 01:29:33;;;;;;;33.95;19.48;;;1.60;97.40;;;;;;5046239;28;20021;-67
2020/12/06 01:31:59;;;;;;;33.33;20.23;;;1.60;97.30;;;;;;5043699;28;20032;-66
2020/12/06 01:34:24;;;;;;;36.97;20.95;;;1.60;97.30;;;;;;5044706;28;20124;-66
2020/12/06 01:36:52;;;;;;;32.60;20.25;;;1.60;97.30;;;;;;5044971;28;20104;-66
2020/12/06 01:39:18;;;;;;;31.48;20.58;;;1.60;97.30;;;;;;5046514;28;20110;-66
2020/12/06 01:41:45;;;;;;;33.60;19.75;;;1.70;97.30;;;;;;5044906;28;20035;-66
2020/12/06 01:44:10;;;;;;;30.23;19.88;;;1.70;97.20;;;;;;5046122;28;20036;-67
2020/12/06 01:46:37;;;;;;;33.03;20.45;;;1.70;97.30;;;;;;5044490;28;20037;-66
2020/12/06 01:49:05;;;;;;;30.88;19.10;;;1.70;97.30;;;;;;5052537;28;20480;-66
2020/12/06 01:51:31;;;;;;;35.05;20.88;;;1.70;97.20;;;;;;5043042;28;20083;-66
2020/12/06 01:53:56;;;;;;;32.58;19.85;;;1.70;97.20;;;;;;5055989;28;20028;-66
2020/12/06 01:56:22;;;;;;;32.13;19.98;;;1.70;97.20;;;;;;5057288;28;20032;-66
2020/12/06 01:58:47;;;;;;;28.77;17.77;;;1.70;97.00;;;;;;5060428;28;20131;-67
2020/12/06 02:01:13;;;;;;;35.55;20.42;;;1.80;96.90;;;;;;5060969;28;20029;-66
2020/12/06 02:03:39;;;;;;;34.70;20.73;;;1.80;96.80;;;;;;5046591;28;20150;-66
2020/12/06 02:06:05;;;;;;;31.63;17.80;;;1.80;96.70;;;;;;5043047;28;20049;-67
2020/12/06 02:08:31;;;;;;;32.13;18.90;;;1.90;96.70;;;;;;5045136;28;20557;-66
2020/12/06 02:10:57;;;;;;;31.02;18.73;;;1.90;96.60;;;;;;5050392;28;20032;-66
2020/12/06 02:13:25;;;;;;;28.15;18.15;;;1.90;96.60;;;;;;5048128;28;20040;-67
2020/12/06 02:15:50;;;;;;;30.80;19.35;;;1.90;96.60;;;;;;5048028;28;20044;-66
2020/12/06 02:18:16;;;;;;;34.10;20.98;;;1.90;96.60;;;;;;5058472;28;20428;-67
2020/12/06 02:20:42;;;;;;;30.98;19.67;;;1.90;96.60;;;;;;5058391;28;20478;-66
2020/12/06 02:23:08;;;;;;;30.98;20.52;;;2.00;96.60;;;;;;5047040;28;20486;-66
2020/12/06 02:25:35;;;;;;;29.90;19.85;;;1.90;96.50;;;;;;5049010;28;20115;-67
2020/12/06 02:28:01;;;;;;;32.13;19.63;;;2.00;96.60;;;;;;5048128;28;20033;-66
2020/12/06 02:30:27;;;;;;;31.38;19.35;;;2.00;96.60;;;;;;5048515;28;20082;-66
2020/12/06 02:32:52;;;;;;;32.75;19.92;;;2.00;96.60;;;;;;5050423;28;20485;-66
2020/12/06 02:35:18;;;;;;;30.05;19.40;;;2.00;96.60;;;;;;5068047;28;20071;-65
2020/12/06 02:37:44;;;;;;;34.65;20.35;;;2.00;96.50;;;;;;5051374;28;20166;-66
2020/12/06 02:40:09;;;;;;;32.25;20.50;;;2.10;96.50;;;;;;5047791;28;20048;-67
2020/12/06 02:42:35;;;;;;;34.35;21.05;;;2.00;96.50;;;;;;5050142;28;20025;-66
2020/12/06 02:45:01;;;;;;;35.33;20.30;;;2.10;96.50;;;;;;5044836;28;20041;-66
2020/12/06 02:47:26;;;;;;;34.30;19.88;;;2.10;96.50;;;;;;5047774;28;20021;-66
2020/12/06 02:49:52;;;;;;;31.95;20.02;;;2.10;96.60;;;;;;5045846;28;20032;-66
2020/12/06 02:52:18;;;;;;;35.17;20.70;;;2.10;96.60;;;;;;5051612;28;20040;-66
2020/12/06 02:54:43;;;;;;;36.55;21.75;;;2.10;96.60;;;;;;5048975;28;20041;-67
2020/12/06 02:57:09;;;;;;;35.65;21.20;;;2.10;96.60;;;;;;5047550;28;20143;-67
2020/12/06 02:59:34;;;;;;;35.33;21.65;;;2.10;96.50;;;;;;5048894;28;20497;-66
2020/12/06 03:02:00;;;;;;;36.03;22.38;;;2.10;96.40;;;;;;5046401;28;20174;-66
2020/12/06 03:04:25;;;;;;;36.53;20.83;;;2.10;96.40;;;;;;5050088;28;20147;-66
2020/12/06 03:06:51;;;;;;;35.55;20.95;;;2.10;96.40;;;;;;5044996;28;20052;-66
2020/12/06 03:09:17;;;;;;;35.55;21.30;;;2.10;96.40;;;;;;5049158;28;20331;-66
2020/12/06 03:11:42;;;;;;;35.85;21.67;;;2.10;96.30;;;;;;5051106;28;20422;-66
2020/12/06 03:14:08;;;;;;;34.30;20.10;;;2.20;96.30;;;;;;5065915;28;20047;-66
2020/12/06 03:16:33;;;;;;;41.15;22.83;;;2.20;96.30;;;;;;5052209;28;20031;-66
2020/12/06 03:18:59;;;;;;;34.17;21.00;;;2.20;96.30;;;;;;5049054;28;20024;-66
2020/12/06 03:21:25;;;;;;;35.28;21.75;;;2.20;96.30;;;;;;5046824;28;20144;-65
2020/12/06 03:23:50;;;;;;;36.22;22.08;;;2.20;96.30;;;;;;5046765;28;20025;-66
2020/12/06 03:26:16;;;;;;;31.92;19.50;;;2.20;96.20;;;;;;5047870;28;20033;-65
2020/12/06 03:28:41;;;;;;;33.85;20.92;;;2.20;96.20;;;;;;5044511;28;20033;-66
2020/12/06 03:31:07;;;;;;;37.58;22.17;;;2.30;96.20;;;;;;5056963;28;20020;-66
2020/12/06 03:33:32;;;;;;;35.45;21.17;;;2.30;96.20;;;;;;5048984;28;20029;-65
2020/12/06 03:35:58;;;;;;;38.25;22.33;;;2.30;96.30;;;;;;5047920;28;20071;-66
2020/12/06 03:38:24;;;;;;;35.80;21.20;;;2.30;96.30;;;;;;5046595;28;20105;-66
2020/12/06 03:40:49;;;;;;;38.55;21.85;;;2.30;96.20;;;;;;5053935;28;20032;-66
2020/12/06 03:43:15;;;;;;;32.83;20.80;;;2.30;96.20;;;;;;5052334;28;20105;-66
2020/12/06 03:45:40;;;;;;;33.70;21.45;;;2.30;96.20;;;;;;5048364;28;20041;-65
2020/12/06 03:48:06;;;;;;;36.80;21.73;;;2.30;96.20;;;;;;5046459;28;20485;-65
2020/12/06 03:50:31;;;;;;;33.60;21.45;;;2.30;96.20;;;;;;5048012;28;20040;-65
2020/12/06 03:52:57;;;;;;;39.10;22.65;;;2.30;96.20;;;;;;5046043;28;20469;-66
2020/12/06 03:55:23;;;;;;;37.50;22.60;;;2.30;96.20;;;;;;5056825;28;20029;-64
2020/12/06 03:57:49;;;;;;;39.25;22.30;;;2.30;96.20;;;;;;5045980;28;20029;-66
2020/12/06 04:00:20;;;;;;;34.88;20.90;;;2.30;96.20;;;;;;5046180;28;20108;-65
2020/12/06 04:02:47;;;;;;;35.35;22.55;;;2.40;96.30;;;;;;5046519;28;20040;-66
2020/12/06 04:05:13;;;;;;;39.80;22.10;;;2.40;96.30;;;;;;5047813;28;20105;-66
2020/12/06 04:07:38;;;;;;;36.63;22.15;;;2.40;96.30;;;;;;5037897;28;20088;-66
2020/12/06 04:10:04;;;;;;;35.40;20.45;;;2.40;96.30;;;;;;5048005;28;20124;-66
2020/12/06 04:12:29;;;;;;;38.63;22.05;;;2.40;96.20;;;;;;5045893;28;20035;-66
2020/12/06 04:14:55;;;;;;;39.53;22.50;;;2.40;96.20;;;;;;5047429;28;20080;-65
2020/12/06 04:17:20;;;;;;;35.15;21.50;;;2.40;96.20;;;;;;5046093;28;20345;-66
2020/12/06 04:19:46;;;;;;;35.38;21.42;;;2.40;96.20;;;;;;5047311;28;20108;-66
2020/12/06 04:22:11;;;;;;;37.50;22.35;;;2.40;96.10;;;;;;5045946;28;20024;-66
2020/12/06 04:24:37;;;;;;;35.50;22.73;;;2.40;96.00;;;;;;5047290;28;20446;-66
2020/12/06 04:27:03;;;;;;;38.10;23.67;;;2.50;96.10;;;;;;5044300;28;20033;-65
2020/12/06 04:29:28;;;;;;;37.13;22.13;;;2.40;96.00;;;;;;5045105;28;20462;-66
2020/12/06 04:31:54;;;;;;;37.15;23.08;;;2.50;96.00;;;;;;5045261;28;20025;-66
2020/12/06 04:34:19;;;;;;;39.05;22.65;;;2.50;96.00;;;;;;5053324;28;20036;-66
2020/12/06 04:36:45;;;;;;;38.45;22.05;;;2.50;95.90;;;;;;5063595;28;20624;-66
2020/12/06 04:39:10;;;;;;;40.55;23.67;;;2.50;95.80;;;;;;5046617;28;20029;-66
2020/12/06 04:41:36;;;;;;;39.22;24.00;;;2.50;95.90;;;;;;5045040;28;20562;-65
2020/12/06 04:44:02;;;;;;;39.45;23.42;;;2.50;95.90;;;;;;5044030;28;20065;-66
2020/12/06 04:46:33;;;;;;;34.60;21.35;;;2.50;95.90;;;;;;5046994;28;20060;-65
2020/12/06 04:49:05;;;;;;;38.10;22.95;;;2.50;95.90;;;;;;5052323;28;20314;-66
2020/12/06 04:51:43;;;;;;;40.90;23.58;;;2.60;96.00;;;;;;5054534;28;20096;-65
2020/12/06 04:54:10;;;;;;;43.30;23.58;;;2.60;96.10;;;;;;5045428;28;20052;-66
2020/12/06 04:56:39;;;;;;;37.50;22.70;;;2.60;96.10;;;;;;5046509;28;20013;-65
2020/12/06 04:59:05;;;;;;;38.15;22.85;;;2.50;96.10;;;;;;5042759;28;20106;-65
2020/12/06 05:01:38;;;;;;;39.13;23.65;;;2.60;96.10;;;;;;5045798;28;20429;-65
2020/12/06 05:04:25;;;;;;;40.50;23.75;;;2.60;96.10;;;;;;5045470;28;20116;-65
2020/12/06 05:06:53;;;;;;;40.25;25.20;;;2.60;96.10;;;;;;5036211;28;20029;-65
2020/12/06 05:09:21;;;;;;;41.03;24.48;;;2.60;96.10;;;;;;5045703;28;20032;-66
2020/12/06 05:11:47;;;;;;;39.95;24.05;;;2.60;96.10;;;;;;5052899;28;20058;-66
2020/12/06 05:14:13;;;;;;;39.72;23.48;;;2.60;96.20;;;;;;5057217;28;20479;-66
2020/12/06 05:16:39;;;;;;;38.30;23.55;;;2.60;96.20;;;;;;5058918;28;20025;-66
2020/12/06 05:19:07;;;;;;;39.15;22.98;;;2.60;96.20;;;;;;5045626;28;20021;-65
2020/12/06 05:21:38;;;;;;;41.47;23.58;;;2.60;96.20;;;;;;5042100;28;20329;-65
2020/12/06 05:24:04;;;;;;;;;;;2.70;96.20;;;;;;5042235;28;20500;-66
2020/12/06 05:26:31;;;;;;;41.30;23.50;;;2.70;96.20;;;;;;5044578;28;19927;-67
2020/12/06 05:28:57;;;;;;;37.63;22.98;;;2.70;96.10;;;;;;5044777;28;20368;-66
2020/12/06 05:31:24;;;;;;;38.15;22.13;;;2.70;96.10;;;;;;5042309;28;20267;-66
2020/12/06 05:33:50;;;;;;;39.25;23.02;;;2.70;96.10;;;;;;5044672;28;20086;-66
2020/12/06 05:36:16;;;;;;;36.95;23.00;;;2.70;96.10;;;;;;5046391;28;20033;-65
2020/12/06 05:38:42;;;;;;;38.85;24.10;;;2.70;96.10;;;;;;5045049;28;20032;-66
2020/12/06 05:41:08;;;;;;;41.00;23.80;;;2.70;96.10;;;;;;5055368;28;20174;-66
2020/12/06 05:43:34;;;;;;;40.70;23.95;;;2.70;96.10;;;;;;5039697;28;20234;-66
2020/12/06 05:46:08;;;;;;;40.22;23.40;;;2.80;96.00;;;;;;5038234;28;20430;-66
2020/12/06 05:48:34;;;;;;;39.13;24.73;;;2.80;95.90;;;;;;5049192;28;20033;-65
2020/12/06 05:51:01;;;;;;;43.05;24.73;;;2.80;95.90;;;;;;5048269;28;20069;-66
2020/12/06 05:53:27;;;;;;;39.38;24.08;;;2.80;95.80;;;;;;5048792;28;20060;-66
2020/12/06 05:56:13;;;;;;;42.65;23.98;;;2.80;95.90;;;;;;5059463;28;20041;-65
2020/12/06 05:58:43;;;;;;;42.22;23.70;;;2.90;95.80;;;;;;5042038;28;20578;-66
2020/12/06 06:01:10;;;;;;;39.85;22.95;;;2.80;95.70;;;;;;5052017;28;20031;-66
2020/12/06 06:03:37;;;;;;;38.28;23.13;;;2.90;95.80;;;;;;5048108;28;20025;-66
2020/12/06 06:06:07;;;;;;;41.08;22.60;;;2.80;95.70;;;;;;5047197;28;20025;-66
2020/12/06 06:08:38;;;;;;;40.97;23.00;;;2.90;95.70;;;;;;5048683;28;20033;-66
2020/12/06 06:11:16;;;;;;;40.85;23.80;;;2.90;95.80;;;;;;5048439;28;20421;-66
2020/12/06 06:13:59;;;;;;;37.88;22.20;;;2.90;95.70;;;;;;5048421;28;20119;-66
2020/12/06 06:16:30;;;;;;;40.67;24.33;;;2.90;95.70;;;;;;5068062;28;20028;-67
2020/12/06 06:18:56;;;;;;;;;;;2.90;95.80;;;;;;5052976;28;20386;-65
2020/12/06 06:21:43;;;;;;;41.22;23.13;;;2.90;95.70;;;;;;5050291;28;19952;-66
2020/12/06 06:24:13;;;;;;;40.35;23.02;;;2.90;95.70;;;;;;5057375;28;20128;-66
2020/12/06 06:26:45;;;;;;;46.83;24.85;;;2.90;95.80;;;;;;5055829;28;20454;-66
2020/12/06 06:29:14;;;;;;;41.05;22.88;;;2.90;95.80;;;;;;5046862;28;20123;-66
2020/12/06 06:31:43;;;;;;;41.97;23.23;;;2.90;95.90;;;;;;5045713;28;20040;-66
2020/12/06 06:34:09;;;;;;;37.65;22.10;;;3.00;96.00;;;;;;5055659;28;20027;-65
2020/12/06 06:36:36;;;;;;;38.10;22.80;;;3.00;96.00;;;;;;5053984;28;20024;-66
2020/12/06 06:39:04;;;;;;;42.38;23.80;;;3.00;95.90;;;;;;5059857;28;20033;-66
2020/12/06 06:41:29;;;;;;;36.22;21.75;;;3.00;95.80;;;;;;5049099;28;20020;-66
2020/12/06 06:44:00;;;;;;;38.70;22.15;;;3.00;95.90;;;;;;5046450;28;20025;-66
2020/12/06 06:46:36;;;;;;;43.38;23.17;;;3.00;95.90;;;;;;5047034;28;20267;-66
2020/12/06 06:49:09;;;;;;;42.80;22.80;;;3.00;96.00;;;;;;5059807;28;20124;-66
2020/12/06 06:51:36;;;;;;;39.25;22.10;;;3.00;96.00;;;;;;5069055;28;20375;-66
2020/12/06 06:54:07;;;;;;;39.72;24.25;;;3.00;96.00;;;;;;5052588;28;20033;-67
2020/12/06 06:56:49;;;;;;;42.53;24.95;;;3.00;96.00;;;;;;5047907;28;20021;-65
2020/12/06 06:59:14;;;;;;;45.35;24.33;;;3.00;96.00;;;;;;5052180;28;20117;-65
2020/12/06 07:01:50;;;;;;;38.83;23.58;;;3.00;96.10;;;;;;5056896;28;20070;-66
2020/12/06 07:04:19;;;;;;;43.83;24.25;;;3.10;96.20;;;;;;5045952;28;20115;-65
2020/12/06 07:06:51;;;;;;;44.30;25.10;;;3.10;96.30;;;;;;5048789;28;20562;-65
2020/12/06 07:09:25;;;;;;;42.63;23.70;;;3.10;96.30;;;;;;5047032;28;20017;-66
2020/12/06 07:11:54;;;;;;;50.53;25.35;;;3.10;96.40;;;;;;5042836;28;20028;-65
2020/12/06 07:14:23;;;;;;;46.30;25.10;;;3.10;96.40;;;;;;5052123;28;20401;-65
2020/12/06 07:16:49;;;;;;;42.75;24.48;;;3.10;96.50;;;;;;5045847;28;20032;-66
2020/12/06 07:19:15;;;;;;;45.85;24.15;;;3.10;96.50;;;;;;5060946;28;20035;-66
2020/12/06 07:21:42;;;;;;;47.95;23.42;;;3.10;96.60;;;;;;5059558;28;20020;-66
2020/12/06 07:24:07;;;;;;;45.58;24.25;;;3.10;96.50;;;;;;5059293;28;20179;-65
2020/12/06 07:26:33;;;;;;;43.08;25.73;;;3.10;96.50;;;;;;5057473;28;20215;-66
2020/12/06 07:28:59;;;;;;;45.53;24.98;;;3.10;96.50;;;;;;5046384;28;20090;-65
2020/12/06 07:31:25;;;;;;;43.15;25.60;;;3.10;96.50;;;;;;5045303;28;20021;-65
2020/12/06 07:33:51;;;;;;;52.72;25.83;;;3.10;96.60;;;;;;5045937;28;20486;-65
2020/12/06 07:36:16;;;;;;;42.65;24.52;;;3.10;96.60;;;;;;5044265;28;20068;-66
2020/12/06 07:38:43;;;;;;;43.65;23.23;;;3.10;96.60;;;;;;5057433;28;20035;-67
2020/12/06 07:41:09;;;;;;;48.33;26.35;;;3.20;96.60;;;;;;5064769;28;20056;-65
2020/12/06 07:43:35;;;;;;;50.88;26.80;;;3.20;96.60;;;;;;5043862;28;20024;-66
2020/12/06 07:46:18;;;;;;;47.72;24.55;;;3.20;96.60;;;;;;5044896;28;20291;-65
2020/12/06 07:48:44;;;;;;;45.15;24.60;;;3.20;96.70;;;;;;5055329;28;20036;-65
2020/12/06 07:51:11;;;;;;;46.97;25.55;;;3.20;96.70;;;;;;5055302;28;20116;-65
2020/12/06 07:53:48;;;;;;;47.72;23.77;;;3.30;96.70;;;;;;5046694;28;20094;-65
2020/12/06 07:56:18;;;;;;;49.67;26.25;;;3.20;96.70;;;;;;5061325;28;20481;-66
2020/12/06 07:59:06;;;;;;;47.60;25.88;;;3.30;96.70;;;;;;5046306;28;20503;-66
2020/12/06 08:01:32;;;;;;;49.28;25.50;;;3.30;96.70;;;;;;5046821;28;20036;-67
2020/12/06 08:03:59;;;;;;;46.40;25.08;;;3.30;96.70;;;;;;5042526;28;20523;-66
2020/12/06 08:06:28;;;;;;;50.05;26.73;;;3.40;96.70;;;;;;5043430;28;20037;-65
2020/12/06 08:08:58;;;;;;;47.50;25.33;;;3.40;96.70;;;;;;5048848;28;20127;-65
2020/12/06 08:11:34;;;;;;;48.40;25.80;;;3.40;96.60;;;;;;5044710;28;20110;-66
2020/12/06 08:14:00;;;;;;;46.70;24.67;;;3.40;96.50;;;;;;5062589;28;20470;-67
2020/12/06 08:16:26;;;;;;;43.92;24.25;;;3.50;96.50;;;;;;5055247;28;20454;-66
2020/12/06 08:19:03;;;;;;;43.63;24.83;;;3.50;96.50;;;;;;5062667;28;20029;-67
2020/12/06 08:21:58;;;;;;;49.22;25.40;;;3.50;96.40;;;;;;5031855;28;20163;-67
2020/12/06 08:24:24;;;;;;;47.63;25.65;;;3.60;96.30;;;;;;5018488;28;20474;-66
2020/12/06 08:26:51;;;;;;;48.08;25.67;;;3.60;96.30;;;;;;5039916;28;20079;-67
2020/12/06 08:29:17;;;;;;;48.85;25.55;;;3.70;96.20;;;;;;5047807;28;20028;-65
2020/12/06 08:31:45;;;;;;;51.65;25.80;;;3.70;96.20;;;;;;5046353;28;20410;-65
2020/12/06 08:34:16;;;;;;;47.42;25.63;;;3.70;96.20;;;;;;5048699;28;20048;-66
2020/12/06 08:36:43;;;;;;;44.22;25.75;;;3.80;96.20;;;;;;5052451;28;20108;-65
2020/12/06 08:39:16;;;;;;;45.80;24.25;;;3.80;96.00;;;;;;5047375;28;20032;-66
2020/12/06 08:41:42;;;;;;;48.25;25.40;;;3.80;95.90;;;;;;5045801;28;20021;-66
2020/12/06 08:44:07;;;;;;;45.88;25.05;;;3.90;95.80;;;;;;5047311;28;20017;-66
2020/12/06 08:46:33;;;;;;;43.55;24.65;;;3.90;95.80;;;;;;5043002;28;20155;-66
2020/12/06 08:49:01;;;;;;;39.38;22.30;;;4.00;95.70;;;;;;5047741;28;20104;-66
2020/12/06 08:51:31;;;;;;;46.35;25.40;;;4.00;95.60;;;;;;5044784;28;20031;-66
2020/12/06 08:53:58;;;;;;;46.63;25.02;;;4.00;95.60;;;;;;5041949;28;20048;-66
2020/12/06 08:56:31;;;;;;;42.03;24.48;;;4.00;95.50;;;;;;5049003;28;20866;-65
2020/12/06 08:59:16;;;;;;;44.97;23.65;;;4.00;95.60;;;;;;5055324;28;20378;-65
2020/12/06 09:01:49;;;;;;;43.95;25.23;;;4.10;95.50;;;;;;5046792;28;20044;-66
2020/12/06 09:04:16;;;;;;;40.50;22.75;;;4.10;95.60;;;;;;5045940;28;20025;-66
2020/12/06 09:06:42;;;;;;;46.38;23.42;;;4.10;95.50;;;;;;5043435;28;20051;-67
2020/12/06 09:09:08;;;;;;;39.30;23.48;;;4.10;95.40;;;;;;5044982;28;20353;-67
2020/12/06 09:11:34;;;;;;;41.78;24.20;;;4.20;95.50;;;;;;5051505;28;20104;-66
2020/12/06 09:14:00;;;;;;;38.53;22.65;;;4.20;95.40;;;;;;5050909;28;20159;-66
2020/12/06 09:16:25;;;;;;;42.15;24.40;;;4.30;95.50;;;;;;5052880;28;20018;-67
2020/12/06 09:18:51;;;;;;;43.70;23.98;;;4.30;95.60;;;;;;5057641;28;20127;-66
2020/12/06 09:21:17;;;;;;;43.53;25.02;;;4.30;95.50;;;;;;5059685;28;20097;-67
2020/12/06 09:23:44;;;;;;;45.40;24.75;;;4.40;95.50;;;;;;5050358;28;20021;-67
2020/12/06 09:26:10;;;;;;;43.78;24.80;;;4.40;95.50;;;;;;5053199;28;20032;-67
2020/12/06 09:28:36;;;;;;;41.25;22.95;;;4.40;95.40;;;;;;5046050;28;20029;-67
2020/12/06 09:31:02;;;;;;;38.97;22.75;;;4.50;95.20;;;;;;5042745;28;20048;-67
2020/12/06 09:33:27;;;;;;;37.20;22.27;;;4.50;95.20;;;;;;5046325;28;20410;-66
2020/12/06 09:35:53;;;;;;;41.63;23.30;;;4.50;95.10;;;;;;5050258;28;20331;-67
2020/12/06 09:38:19;;;;;;;42.13;23.50;;;4.50;94.90;;;;;;5046740;28;20073;-67
2020/12/06 09:40:45;;;;;;;37.40;21.48;;;4.60;94.90;;;;;;5052073;28;20089;-67
2020/12/06 09:43:11;;;;;;;37.10;22.60;;;4.60;94.90;;;;;;5043575;28;20373;-67
2020/12/06 09:45:37;;;;;;;41.80;23.38;;;4.60;94.80;;;;;;5054457;28;20391;-66
2020/12/06 09:48:03;;;;;;;43.05;23.65;;;4.60;94.70;;;;;;5043075;28;20021;-67
2020/12/06 09:50:30;;;;;;;33.15;21.30;;;4.70;94.90;;;;;;5051922;28;20058;-67
2020/12/06 09:52:55;;;;;;;38.30;22.73;;;4.70;95.00;;;;;;5050004;28;20059;-67
2020/12/06 09:55:21;;;;;;;41.45;22.80;;;4.70;95.00;;;;;;5050943;28;20032;-66
2020/12/06 09:57:46;;;;;;;42.42;24.27;;;4.70;94.90;;;;;;5050312;28;20040;-66
2020/12/06 10:00:12;;;;;;;40.15;24.20;;;4.70;94.80;;;;;;5049270;28;20056;-66
2020/12/06 10:02:38;;;;;;;40.35;24.23;;;4.80;94.70;;;;;;5046165;28;20032;-67
2020/12/06 10:05:04;;;;;;;36.25;22.33;;;4.80;94.30;;;;;;5051944;28;20063;-65
2020/12/06 10:07:29;;;;;;;40.33;23.33;;;4.80;94.00;;;;;;5039013;28;20017;-67
2020/12/06 10:09:55;;;;;;;34.35;21.90;;;4.90;94.00;;;;;;5046167;28;20047;-67
2020/12/06 10:12:21;;;;;;;37.53;21.60;;;4.90;94.20;;;;;;5038977;28;20113;-67
2020/12/06 10:14:46;;;;;;;35.05;21.80;;;4.90;94.10;;;;;;5046278;28;20027;-66
2020/12/06 10:17:12;;;;;;;40.17;22.75;;;4.90;94.00;;;;;;5052919;28;20021;-68
2020/12/06 10:19:38;;;;;;;36.20;22.35;;;5.00;94.20;;;;;;5047140;28;20031;-66
2020/12/06 10:22:04;;;;;;;38.05;21.15;;;5.00;94.10;;;;;;5040580;28;20360;-67
2020/12/06 10:24:30;;;;;;;44.95;24.10;;;5.00;93.90;;;;;;5045504;28;20452;-66
2020/12/06 10:26:56;;;;;;;35.05;20.40;;;5.00;94.00;;;;;;5044247;28;20289;-67
2020/12/06 10:29:22;;;;;;;36.35;21.60;;;4.90;93.90;;;;;;5032549;28;20109;-67
2020/12/06 10:31:55;;;;;;;36.55;21.00;;;4.90;93.80;;;;;;5051740;28;20029;-67
2020/12/06 10:34:21;;;;;;;38.10;22.10;;;4.90;93.70;;;;;;5056651;28;20134;-67
2020/12/06 10:36:55;;;;;;;40.13;22.27;;;5.00;94.00;;;;;;5040701;28;20119;-67
2020/12/06 10:39:22;;;;;;;33.85;21.73;;;4.90;94.00;;;;;;5051710;28;20020;-66
2020/12/06 10:41:52;;;;;;;35.88;21.95;;;5.00;93.80;;;;;;5050093;28;20028;-66
2020/12/06 10:44:18;;;;;;;36.65;21.83;;;5.00;93.90;;;;;;5056056;28;20101;-66
2020/12/06 10:46:44;;;;;;;36.50;20.63;;;5.00;93.80;;;;;;5050648;28;20514;-66
2020/12/06 10:49:11;;;;;;;37.67;21.20;;;5.00;93.70;;;;;;5044505;28;20029;-66
2020/12/06 10:51:41;;;;;;;31.05;20.63;;;5.00;93.80;;;;;;5046239;28;20438;-66
2020/12/06 10:54:08;;;;;;;34.15;21.13;;;4.90;93.80;;;;;;5042222;28;20551;-67
2020/12/06 10:56:35;;;;;;;34.33;21.70;;;4.90;93.90;;;;;;5038445;28;20025;-67
2020/12/06 10:59:01;;;;;;;37.88;21.67;;;5.00;93.80;;;;;;5038694;28;20077;-66
2020/12/06 11:01:28;;;;;;;39.50;22.80;;;5.00;93.80;;;;;;5028864;28;20056;-67
2020/12/06 11:03:53;;;;;;;32.70;20.98;;;5.00;93.50;;;;;;5031503;28;20140;-67
2020/12/06 11:06:21;;;;;;;35.13;21.98;;;5.00;93.40;;;;;;5028729;28;20748;-66
2020/12/06 11:08:47;;;;;;;35.75;20.90;;;5.00;93.20;;;;;;5030452;28;20465;-66
2020/12/06 11:11:14;;;;;;;35.00;21.40;;;5.00;93.40;;;;;;5032632;28;20037;-67
2020/12/06 11:13:40;;;;;;;37.30;22.48;;;5.00;93.30;;;;;;5043130;28;20060;-67
2020/12/06 11:16:06;;;;;;;33.83;20.88;;;5.10;93.40;;;;;;5047914;28;20043;-67
2020/12/06 11:18:31;;;;;;;36.88;20.73;;;5.00;93.20;;;;;;5054004;28;20017;-66
2020/12/06 11:20:57;;;;;;;36.17;21.52;;;5.00;93.40;;;;;;5047747;28;20366;-67
2020/12/06 11:23:22;;;;;;;36.75;21.77;;;5.00;93.40;;;;;;5045265;28;20025;-67
2020/12/06 11:25:48;;;;;;;40.95;22.85;;;5.00;93.60;;;;;;5052236;28;20040;-67
2020/12/06 11:28:14;;;;;;;36.88;22.10;;;5.00;93.60;;;;;;5045017;28;20554;-67
2020/12/06 11:30:39;;;;;;;36.95;21.70;;;5.00;93.70;;;;;;5059091;28;20041;-67
2020/12/06 11:33:05;;;;;;;42.00;22.33;;;5.00;93.40;;;;;;5052074;28;20051;-67
2020/12/06 11:35:30;;;;;;;37.95;23.27;;;5.00;93.40;;;;;;5058230;28;20028;-67
2020/12/06 11:37:56;;;;;;;38.42;21.85;;;5.00;93.50;;;;;;5051606;28;20214;-67
2020/12/06 11:40:22;;;;;;;36.53;21.55;;;5.00;93.30;;;;;;5048986;28;20028;-66
2020/12/06 11:42:47;;;;;;;37.33;23.23;;;5.00;93.40;;;;;;5042986;28;20099;-67
2020/12/06 11:45:13;;;;;;;36.72;22.40;;;4.90;93.40;;;;;;5057997;28;20045;-68
2020/12/06 11:47:39;;;;;;;39.60;23.15;;;5.00;93.40;;;;;;5041813;28;20053;-67
2020/12/06 11:50:05;;;;;;;38.17;21.92;;;5.00;93.30;;;;;;5058560;28;20524;-67
2020/12/06 11:52:31;;;;;;;33.22;21.33;;;5.00;93.50;;;;;;5046566;28;20393;-67
2020/12/06 11:54:56;;;;;;;36.33;21.67;;;5.00;93.50;;;;;;5057196;28;20028;-67
2020/12/06 11:57:22;;;;;;;39.17;23.55;;;5.00;93.20;;;;;;5048858;28;20080;-67
2020/12/06 11:59:48;;;;;;;37.30;22.92;;;5.00;93.30;;;;;;5051675;28;20043;-66
2020/12/06 12:02:13;;;;;;;37.25;22.00;;;5.00;93.10;;;;;;5049110;28;20064;-67
2020/12/06 12:04:39;;;;;;;37.00;22.77;;;5.00;93.10;;;;;;5057554;28;20082;-67
2020/12/06 12:07:04;;;;;;;33.75;21.38;;;5.00;93.30;;;;;;5044340;28;20036;-66
2020/12/06 12:09:30;;;;;;;36.20;21.80;;;5.00;93.20;;;;;;5051426;28;20511;-67
2020/12/06 12:11:56;;;;;;;36.33;22.38;;;5.00;92.80;;;;;;5048785;28;20024;-67
2020/12/06 12:14:22;;;;;;;36.80;22.17;;;5.10;93.30;;;;;;5049732;28;20036;-67
2020/12/06 12:16:47;;;;;;;35.70;21.75;;;5.10;93.10;;;;;;5030201;28;20373;-67
2020/12/06 12:19:13;;;;;;;33.65;21.58;;;5.10;93.30;;;;;;5047245;28;20037;-67
2020/12/06 12:21:38;;;;;;;38.58;22.23;;;5.00;92.80;;;;;;5048625;28;20506;-67
2020/12/06 12:24:04;;;;;;;37.10;22.65;;;5.10;93.10;;;;;;5046937;28;20032;-67
2020/12/06 12:26:30;;;;;;;37.42;21.13;;;5.10;93.10;;;;;;5036759;28;20028;-67
2020/12/06 12:28:55;;;;;;;35.40;22.20;;;5.10;93.10;;;;;;5045525;28;20350;-67
2020/12/06 12:31:21;;;;;;;37.90;21.85;;;5.10;93.30;;;;;;5046032;28;20040;-66
2020/12/06 12:33:47;;;;;;;36.08;22.15;;;5.10;93.00;;;;;;5046951;28;20035;-66
2020/12/06 12:36:12;;;;;;;36.35;21.70;;;5.10;93.20;;;;;;5057046;28;20043;-67
2020/12/06 12:38:38;;;;;;;39.42;22.98;;;5.10;93.20;;;;;;5047213;28;20057;-67